Latest Coastal Weather Observations for Montague Island

IDN60701

Issued at 6:32 pm EST Tuesday 27 September 2016 (issued every 10 minutes, with the page automatically refreshed every 10 minutes)

About coastal observations | Map of coastal stations | Coastal observations for NSW | Marine services | Other Formats
Station Details ID: 069017 Name: MONTAGUE ISLAND LIGHTHOUSE Lat: -36.25 Lon: 150.23 Height: 52.0 m
Data from the previous 72 hours. | See also: Recent months at Montague Island
Date/Time
EST
Temp
°C
Wind Pressure Rain since
9am
mm
Weather Cloud Vis
km
Sea
Height
m
Swell
Dir  Spd
kts
Gust
kts
hPa Trend Height
m
Period
s
Dir
27/06:30pm 14.8 SSW 15 21 1010.0 - 0.0 - - - - - - -
27/06:00pm 15.1 SSW 16 19 1009.5 - 0.0 - - - - - - -
27/05:30pm 15.3 S 16 19 1009.1 - 0.0 - - - - - - -
27/05:00pm 15.0 S 14 17 1008.8 - 0.0 - - - - - - -
27/04:30pm 14.9 S 15 18 1008.3 - 0.0 - - - - - - -
27/04:00pm 15.2 S 14 17 1008.0 - 0.0 - - - - - - -
27/03:30pm 15.0 S 15 18 1007.6 - 0.0 - - - - - - -
27/03:00pm 15.5 S 13 17 1007.4 - 0.0 - - - - - - -
27/02:30pm 15.4 S 16 20 1007.0 - 0.0 - - - - - - -
27/02:00pm 15.5 S 15 19 1007.1 - 0.0 - - - - - - -
27/01:30pm 15.4 S 14 17 1007.2 - 0.0 - - - - - - -
27/01:00pm 15.3 S 16 19 1006.9 - 0.0 - - - - - - -
27/12:30pm 13.9 S 18 22 1006.9 - 0.0 - - - - - - -
27/12:00pm 15.2 S 19 24 1006.6 - 0.0 - - - - - - -
27/11:30am 14.9 SSW 18 21 1006.3 - 0.0 - - - - - - -
27/11:00am 14.3 SSW 20 25 1006.3 - 0.0 - - - - - - -
27/10:30am 15.5 S 14 18 1006.2 - 0.0 - - - - - - -
27/10:00am 14.5 S 9 11 1006.5 - 0.0 - - - - - - -
27/09:30am 16.9 WNW 7 10 1006.3 - 0.0 - - - - - - -
27/09:00am 15.4 NW 10 19 1006.3 - 0.2 - - - - - - -
27/08:30am 14.1 NW 7 9 1006.6 - 0.2 - - - - - - -
27/08:00am 13.4 NW 8 10 1006.8 - 0.2 - - - - - - -
27/07:30am 13.0 NNW 9 13 1006.7 - 0.2 - - - - - - -
27/07:00am 12.4 NNW 9 12 1006.8 - 0.2 - - - - - - -
27/06:30am 12.0 NNW 7 9 1007.0 - 0.2 - - - - - - -
27/06:00am 11.7 NNW 7 9 1007.5 - 0.2 - - - - - - -
27/05:30am 11.7 NNW 7 9 1007.6 - 0.2 - - - - - - -
27/05:00am 11.9 NNW 7 9 1007.9 - 0.2 - - - - - - -
27/04:30am 11.9 NNW 6 8 1007.9 - 0.2 - - - - - - -
27/04:00am 11.9 NNW 6 8 1008.1 - 0.2 - - - - - - -
27/03:30am 11.8 NNW 7 8 1008.4 - 0.2 - - - - - - -
27/03:00am 12.1 N 6 8 1008.8 - 0.2 - - - - - - -
27/02:30am 12.3 NNW 5 6 1009.0 - 0.2 - - - - - - -
27/02:00am 11.9 NW 5 7 1009.7 - 0.2 - - - - - - -
27/01:30am 11.8 NW 7 8 1010.2 - 0.2 - - - - - - -
27/01:00am 11.9 WNW 7 8 1010.5 - 0.2 - - - - - - -
27/12:30am 12.0 WNW 5 7 1010.5 - 0.2 - - - - - - -
27/12:00am 12.2 W 6 8 1010.9 - 0.2 - - - - - - -
 
Date/Time
EST
Temp
°C
Wind Pressure Rain since
9am
mm
Weather Cloud Vis
km
Sea
Height
m
Swell
Dir  Spd
kts
Gust
kts
hPa Trend Height
m
Period
s
Dir
26/11:30pm 12.4 WNW 5 6 1011.0 - 0.2 - - - - - - -
26/11:00pm 12.7 WNW 6 8 1011.3 - 0.2 - - - - - - -
26/10:30pm 12.6 W 6 7 1011.6 - 0.2 - - - - - - -
26/10:00pm 12.8 W 7 9 1011.9 - 0.2 - - - - - - -
26/09:30pm 13.2 WSW 6 8 1011.8 - 0.2 - - - - - - -
26/09:00pm 13.3 W 7 8 1011.6 - 0.2 - - - - - - -
26/08:30pm 13.2 WNW 7 8 1011.5 - 0.2 - - - - - - -
26/08:00pm 13.1 W 8 10 1011.4 - 0.2 - - - - - - -
26/07:30pm 13.7 WNW 7 9 1011.2 - 0.2 - - - - - - -
26/07:00pm 14.2 SSW 1 2 1011.1 - 0.2 - - - - - - -
26/06:30pm 14.3 SSW 5 7 1010.9 - 0.2 - - - - - - -
26/06:00pm 14.7 S 7 9 1010.6 - 0.2 - - - - - - -
26/05:30pm 14.7 S 7 9 1010.3 - 0.2 - - - - - - -
26/05:00pm 14.6 SE 8 11 1009.9 - 0.2 - - - - - - -
26/04:30pm 14.7 SE 8 10 1009.8 - 0.2 - - - - - - -
26/04:00pm 15.1 ESE 8 11 1009.5 - 0.2 - - - - - - -
26/03:30pm 14.9 ESE 9 12 1009.3 - 0.2 - - - - - - -
26/03:00pm 15.0 ESE 11 13 1009.2 - 0.2 - - - - - - -
26/02:30pm 14.8 ESE 12 15 1009.2 - 0.2 - - - - - - -
26/02:00pm 14.9 ESE 11 13 1009.5 - 0.2 - - - - - - -
26/01:30pm 15.1 E 9 11 1009.9 - 0.2 - - - - - - -
26/01:00pm 15.2 ESE 7 9 1010.3 - 0.2 - - - - - - -
26/12:30pm 15.9 ESE 7 9 1010.5 - 0.2 - - - - - - -
26/12:00pm 16.0 ESE 5 8 1010.8 - 0.2 Recent precip. - - - - - -
26/11:30am 16.3 SSW 4 7 1011.0 - 0.2 - - - - - - -
26/11:00am 16.3 SSW 5 8 1011.4 - 0.0 - - - - - - -
26/10:30am 16.4 SW 6 9 1011.6 - 0.0 - - - - - - -
26/10:00am 16.1 WSW 7 9 1011.9 - 0.0 - - - - - - -
26/09:30am 15.0 WSW 8 10 1012.4 - 0.0 - - - - - - -
26/09:00am 14.7 SW 8 10 1012.5 - 0.0 - - - - - - -
26/08:30am 14.4 SW 7 9 1012.6 - 0.0 - - - - - - -
26/08:00am 13.8 SW 8 10 1012.5 - 0.0 - - - - - - -
26/07:30am 12.6 SW 9 12 1012.6 - 0.0 - - - - - - -
26/07:00am 12.2 SW 10 12 1012.5 - 0.0 - - - - - - -
26/06:30am 11.9 SW 9 11 1012.2 - 0.0 - - - - - - -
26/06:00am 11.6 SW 9 11 1012.1 - 0.0 - - - - - - -
26/05:30am 11.8 SW 13 16 1012.0 - 0.0 - - - - - - -
26/05:00am 11.8 SW 13 17 1011.7 - 0.0 - - - - - - -
26/04:30am 11.9 SW 16 19 1011.6 - 0.0 - - - - - - -
26/04:00am 11.9 SW 16 19 1011.3 - 0.0 - - - - - - -
26/03:30am 12.0 SW 12 17 1011.2 - 0.0 - - - - - - -
26/03:00am 12.0 SW 9 11 1011.4 - 0.0 - - - - - - -
26/02:30am 12.2 SW 11 13 1011.4 - 0.0 - - - - - - -
26/02:00am 12.6 SSW 11 15 1011.5 - 0.0 - - - - - - -
26/01:30am 12.9 SSW 10 14 1011.5 - 0.0 - - - - - - -
26/01:00am 13.0 SW 10 13 1011.8 - 0.0 - - - - - - -
26/12:30am 12.9 SSW 10 13 1011.7 - 0.0 - - - - - - -
26/12:00am 13.0 SW 10 13 1011.6 - 0.0 - - - - - - -
 
Date/Time
EST
Temp
°C
Wind Pressure Rain since
9am
mm
Weather Cloud Vis
km
Sea
Height
m
Swell
Dir  Spd
kts
Gust
kts
hPa Trend Height
m
Period
s
Dir
25/11:30pm 13.3 SSW 11 14 1011.4 - 0.0 - - - - - - -
25/11:00pm 13.3 SSW 14 17 1011.2 - 0.0 - - - - - - -
25/10:30pm 13.3 SSW 16 19 1011.0 - 0.0 - - - - - - -
25/10:00pm 13.2 SSW 15 19 1010.9 - 0.0 - - - - - - -
25/09:30pm 13.2 S 16 21 1010.8 - 0.0 - - - - - - -
25/09:00pm 13.4 S 17 20 1010.7 - 0.0 - - - - - - -
25/08:30pm 13.3 SSW 17 21 1010.3 - 0.0 - - - - - - -
25/08:00pm 13.3 S 17 21 1010.2 - 0.0 - - - - - - -
25/07:30pm 12.8 S 18 22 1009.9 - 0.0 - - - - - - -
25/07:00pm 13.8 S 18 23 1009.7 - 0.0 - - - - - - -
25/06:30pm 13.4 S 19 24 1008.9 - 0.0 - - - - - - -
25/06:00pm 13.1 S 19 23 1008.4 - 0.0 - - - - - - -
25/05:30pm 14.0 S 20 23 1007.8 - 0.0 - - - - - - -
25/05:00pm 14.5 S 19 23 1007.5 - 0.0 - - - - - - -
25/04:30pm 14.7 S 17 21 1007.0 - 0.0 - - - - - - -
25/04:00pm 14.7 S 19 23 1006.7 - 0.0 - - - - - - -
25/03:30pm 15.0 S 17 20 1006.5 - 0.0 - - - - - - -
25/03:00pm 14.5 S 16 21 1006.5 - 0.0 - - - - - - -
25/02:30pm 15.5 S 20 24 1006.0 - 0.0 - - - - - - -
25/02:00pm 15.7 S 18 21 1005.8 - 0.0 - - - - - - -
25/01:30pm 17.4 S 16 19 1005.6 - 0.0 - - - - - - -
25/01:00pm 16.8 S 15 18 1005.9 - 0.0 - - - - - - -
25/12:30pm 17.0 SSE 11 15 1005.8 - 0.0 - - - - - - -
25/12:00pm 19.0 S 10 13 1005.9 - 0.0 - - - - - - -
25/11:30am 17.9 SSE 11 13 1005.7 - 0.0 - - - - - - -
25/11:00am 18.1 SSE 10 13 1005.7 - 0.0 - - - - - - -
25/10:30am 18.0 SSE 10 14 1005.8 - 0.0 - - - - - - -
25/10:00am 18.0 SSE 6 10 1005.9 - 0.0 - - - - - - -
25/09:30am 17.3 SE 4 6 1005.9 - 0.0 - - - - - - -
25/09:00am 17.5 SE 4 6 1005.7 - 0.0 - - - - - - -
25/08:30am 17.5 SSE 5 7 1005.4 - 0.0 - - - - - - -
25/08:00am 17.8 SSE 4 7 1005.2 - 0.0 - - - - - - -
25/07:30am 16.6 WSW 1 3 1004.9 - 0.0 - - - - - - -
25/07:00am 15.2 WSW 3 6 1004.5 - 0.0 - - - - - - -
25/06:30am 15.8 WNW 7 8 1004.4 - 0.0 - - - - - - -
25/06:00am 15.4 NW 5 7 1004.3 - 0.0 - - - - - - -
25/05:30am 15.7 WNW 6 7 1004.0 - 0.0 - - - - - - -
25/05:00am 15.7 WNW 7 9 1003.9 - 0.0 - - - - - - -
25/04:30am 15.8 WNW 7 9 1003.8 - 0.0 - - - - - - -
25/04:00am 16.0 WNW 8 9 1003.8 - 0.0 - - - - - - -
25/03:30am 15.8 NW 7 10 1003.8 - 0.0 - - - - - - -
25/03:00am 16.2 NW 7 9 1003.8 - 0.0 - - - - - - -
25/02:30am 15.5 WSW 8 11 1003.6 - 0.0 - - - - - - -
25/02:00am 14.9 WNW 7 9 1004.5 - 0.0 - - - - - - -
25/01:30am 15.0 WNW 6 8 1005.0 - 0.0 - - - - - - -
25/01:00am 15.0 WNW 7 8 1005.1 - 0.0 - - - - - - -
25/12:30am 15.2 WNW 4 6 1005.3 - 0.0 - - - - - - -
25/12:00am 15.4 WNW 7 8 1005.4 - 0.0 - - - - - - -
 
Date/Time
EST
Temp
°C
Wind Pressure Rain since
9am
mm
Weather Cloud Vis
km
Sea
Height
m
Swell
Dir  Spd
kts
Gust
kts
hPa Trend Height
m
Period
s
Dir
24/11:30pm 16.0 NNW 7 8 1005.6 - 0.0 - - - - - - -
24/11:00pm 16.2 NNW 7 8 1006.0 - 0.0 - - - - - - -
24/10:30pm 16.4 NNW 7 9 1006.3 - 0.0 - - - - - - -
24/10:00pm 16.5 NNW 7 8 1006.3 - 0.0 - - - - - - -
24/09:30pm 16.7 NNW 7 8 1006.6 - 0.0 - - - - - - -
24/09:00pm 17.1 N 7 9 1006.9 - 0.0 - - - - - - -
24/08:30pm 16.9 N 8 10 1007.2 - 0.0 - - - - - - -
24/08:00pm 16.9 N 8 11 1007.5 - 0.0 - - - - - - -
24/07:30pm 17.0 N 8 10 1007.6 - 0.0 - - - - - - -
24/07:00pm 17.1 N 8 10 1007.4 - 0.0 - - - - - - -

Other Formats:

Comma delimited format used in spreadsheet applications
http://www.bom.gov.au/fwo/IDN60701/IDN60701.94939.axf

JavaScript Object Notation format (JSON) in row-major order
http://www.bom.gov.au/fwo/IDN60701/IDN60701.94939.json